Time;durP1;ratioP1;P1;durP2;ratioP2;P2;SDS_P1;SDS_P2;PMS_P1;PMS_P2;Temp;Humidity;BMP_temperature;BMP_pressure;BME280_temperature;BME280_humidity;BME280_pressure;Samples;Min_cycle;Max_cycle;Signal;HPM_P1;HPM_P2
2022/12/12 00:01:24;;;;;;;48.60;25.08;;;;;;;;;;4970553;28;20030;-59
2022/12/12 00:03:49;;;;;;;;;;;;;;;;;;4972176;28;20031;-61
2022/12/12 00:06:15;;;;;;;50.03;26.23;;;;;;;;;;4980735;28;19964;-61
2022/12/12 00:08:42;;;;;;;53.00;26.92;;;;;;;;;;5031655;23;20525;-64
2022/12/12 00:11:08;;;;;;;51.78;25.35;;;;;;;;;;5028492;28;20033;-62
2022/12/12 00:13:35;;;;;;;53.22;25.85;;;;;;;;;;5028244;28;20121;-64
2022/12/12 00:16:01;;;;;;;51.33;25.92;;;;;;;;;;4997020;28;20037;-64
2022/12/12 00:18:27;;;;;;;51.80;26.60;;;;;;;;;;4992287;28;20022;-63
2022/12/12 00:20:53;;;;;;;54.20;27.20;;;;;;;;;;4993476;28;20030;-62
2022/12/12 00:23:19;;;;;;;54.20;27.35;;;;;;;;;;4993123;28;20410;-64
2022/12/12 00:25:45;;;;;;;52.53;24.77;;;;;;;;;;4994184;28;20034;-63
2022/12/12 00:28:11;;;;;;;51.70;26.02;;;;;;;;;;4993117;28;20030;-63
2022/12/12 00:30:37;;;;;;;57.63;27.50;;;;;;;;;;4992506;28;20117;-63
2022/12/12 00:33:03;;;;;;;51.88;26.30;;;;;;;;;;4992918;28;20475;-61
2022/12/12 00:35:29;;;;;;;46.75;25.63;;;;;;;;;;4993060;28;20033;-63
2022/12/12 00:37:55;;;;;;;49.58;26.85;;;;;;;;;;4993961;28;20031;-64
2022/12/12 00:40:21;;;;;;;55.53;27.73;;;;;;;;;;4993920;28;20077;-63
2022/12/12 00:42:47;;;;;;;49.45;25.65;;;;;;;;;;4992519;28;20059;-64
2022/12/12 00:45:13;;;;;;;59.53;28.98;;;;;;;;;;4998873;28;20052;-64
2022/12/12 00:47:39;;;;;;;48.20;24.55;;;;;;;;;;5012066;28;20029;-63
2022/12/12 00:50:05;;;;;;;53.67;24.20;;;;;;;;;;5013242;28;20555;-63
2022/12/12 00:52:31;;;;;;;48.08;23.73;;;;;;;;;;5013317;28;20092;-63
2022/12/12 00:54:57;;;;;;;50.25;25.55;;;;;;;;;;5011958;28;20021;-64
2022/12/12 00:57:23;;;;;;;50.65;26.40;;;;;;;;;;5013432;28;20557;-65
2022/12/12 00:59:49;;;;;;;56.38;29.23;;;;;;;;;;5012464;28;20118;-67
2022/12/12 01:02:15;;;;;;;50.53;26.73;;;;;;;;;;5029777;28;20397;-67
2022/12/12 01:04:41;;;;;;;52.33;26.83;;;;;;;;;;5033038;28;20029;-64
2022/12/12 01:07:07;;;;;;;57.40;27.75;;;;;;;;;;5020635;28;20045;-64
2022/12/12 01:09:33;;;;;;;57.78;28.10;;;;;;;;;;5013587;28;20470;-66
2022/12/12 01:11:59;;;;;;;52.13;24.95;;;;;;;;;;5013498;28;20037;-64
2022/12/12 01:14:25;;;;;;;54.20;28.35;;;;;;;;;;5012825;28;20026;-64
2022/12/12 01:16:51;;;;;;;51.03;25.88;;;;;;;;;;4995942;28;20030;-63
2022/12/12 01:19:17;;;;;;;56.47;27.38;;;;;;;;;;4992404;28;20084;-64
2022/12/12 01:21:43;;;;;;;52.05;27.17;;;;;;;;;;4993273;28;20101;-64
2022/12/12 01:24:09;;;;;;;51.60;26.38;;;;;;;;;;4992930;28;20022;-63
2022/12/12 01:26:36;;;;;;;54.03;26.42;;;;;;;;;;4991921;28;20038;-64
2022/12/12 01:29:02;;;;;;;50.47;27.92;;;;;;;;;;4993388;28;20030;-64
2022/12/12 01:31:28;;;;;;;56.72;27.85;;;;;;;;;;4993647;28;20071;-62
2022/12/12 01:33:54;;;;;;;50.25;25.65;;;;;;;;;;4993197;28;20022;-64
2022/12/12 01:36:22;;;;;;;55.58;26.15;;;;;;;;;;5006178;28;20026;-62
2022/12/12 01:38:48;;;;;;;52.45;26.35;;;;;;;;;;5012015;28;20066;-64
2022/12/12 01:41:15;;;;;;;49.92;25.85;;;;;;;;;;5013034;28;20030;-64
2022/12/12 01:43:41;;;;;;;49.03;25.13;;;;;;;;;;5010627;28;20574;-63
2022/12/12 01:46:25;;;;;;;51.15;27.75;;;;;;;;;;5012772;28;20141;-62
2022/12/12 01:48:53;;;;;;;50.67;27.40;;;;;;;;;;5011231;28;20030;-66
2022/12/12 01:51:20;;;;;;;52.70;26.25;;;;;;;;;;5012783;28;20566;-63
2022/12/12 01:53:48;;;;;;;53.58;26.98;;;;;;;;;;5012203;28;20029;-64
2022/12/12 01:56:16;;;;;;;53.00;28.48;;;;;;;;;;5012745;28;20097;-65
2022/12/12 01:58:44;;;;;;;49.38;26.17;;;;;;;;;;5011349;28;20022;-63
2022/12/12 02:01:10;;;;;;;55.57;28.40;;;;;;;;;;5012765;28;20479;-65
2022/12/12 02:03:37;;;;;;;52.55;26.33;;;;;;;;;;5011286;28;20421;-63
2022/12/12 02:06:05;;;;;;;62.22;29.58;;;;;;;;;;5012822;28;20050;-63
2022/12/12 02:08:31;;;;;;;53.53;27.27;;;;;;;;;;5011519;28;20116;-64
2022/12/12 02:10:58;;;;;;;50.67;25.95;;;;;;;;;;5002395;28;20018;-63
2022/12/12 02:13:25;;;;;;;49.05;25.60;;;;;;;;;;4992669;28;20512;-64
2022/12/12 02:16:10;;;;;;;58.17;28.90;;;;;;;;;;4993232;28;20018;-64
2022/12/12 02:18:42;;;;;;;51.08;26.45;;;;;;;;;;4991677;28;20088;-64
2022/12/12 02:21:11;;;;;;;58.05;28.60;;;;;;;;;;4993009;28;20096;-65
2022/12/12 02:23:37;;;;;;;52.22;27.30;;;;;;;;;;4991361;28;20027;-64
2022/12/12 02:26:22;;;;;;;53.25;26.33;;;;;;;;;;4992910;28;20073;-64
2022/12/12 02:28:51;;;;;;;51.67;26.65;;;;;;;;;;4992723;28;20027;-64
2022/12/12 02:31:31;;;;;;;49.65;27.50;;;;;;;;;;4991449;28;20026;-65
2022/12/12 02:34:09;;;;;;;50.60;27.20;;;;;;;;;;4992588;28;20018;-64
2022/12/12 02:36:38;;;;;;;57.63;26.02;;;;;;;;;;4993173;28;20529;-65
2022/12/12 02:39:27;;;;;;;54.65;28.02;;;;;;;;;;4993132;28;20026;-63
2022/12/12 02:42:00;;;;;;;51.70;26.27;;;;;;;;;;4992634;28;20610;-65
2022/12/12 02:44:26;;;;;;;51.97;27.70;;;;;;;;;;4992507;28;20561;-64
2022/12/12 02:46:52;;;;;;;55.25;26.50;;;;;;;;;;4992803;28;20026;-64
2022/12/12 02:49:21;;;;;;;51.55;26.83;;;;;;;;;;4991377;28;20031;-65
2022/12/12 02:51:48;;;;;;;56.40;28.55;;;;;;;;;;4991239;28;20590;-64
2022/12/12 02:54:16;;;;;;;58.10;28.70;;;;;;;;;;4994481;28;20046;-64
2022/12/12 02:56:45;;;;;;;50.75;26.42;;;;;;;;;;4996621;28;20067;-64
2022/12/12 02:59:17;;;;;;;55.15;29.08;;;;;;;;;;4995123;28;20040;-64
2022/12/12 03:01:43;;;;;;;54.15;27.80;;;;;;;;;;4996175;28;20030;-63
2022/12/12 03:10:08;;;;;;;54.30;27.65;;;;;;;;;;4996440;28;20170;-64
2022/12/12 03:12:34;;;;;;;55.22;27.90;;;;;;;;;;4996085;28;20138;-63
2022/12/12 03:15:19;;;;;;;54.38;26.05;;;;;;;;;;4995915;28;20065;-64
2022/12/12 03:17:53;;;;;;;50.45;26.25;;;;;;;;;;4995880;28;20618;-65
2022/12/12 03:20:28;;;;;;;51.88;25.58;;;;;;;;;;4995975;28;20018;-65
2022/12/12 03:23:03;;;;;;;54.20;26.83;;;;;;;;;;4995829;28;20026;-64
2022/12/12 03:25:42;;;;;;;57.30;28.67;;;;;;;;;;4994431;28;20030;-63
2022/12/12 03:28:08;;;;;;;52.25;25.92;;;;;;;;;;4994648;28;20375;-63
2022/12/12 03:30:38;;;;;;;51.75;26.50;;;;;;;;;;4996177;28;20033;-65
2022/12/12 03:33:40;;;;;;;55.17;27.48;;;;;;;;;;4995347;28;20034;-64
2022/12/12 03:36:09;;;;;;;57.00;26.77;;;;;;;;;;4973729;28;20050;-61
2022/12/12 03:38:43;;;;;;;57.42;28.33;;;;;;;;;;4991625;28;20035;-64
2022/12/12 03:41:13;;;;;;;56.45;28.85;;;;;;;;;;4995850;28;20018;-64
2022/12/12 03:43:45;;;;;;;63.10;31.33;;;;;;;;;;4994198;28;20120;-64
2022/12/12 03:46:23;;;;;;;60.30;29.33;;;;;;;;;;4994133;28;20032;-64
2022/12/12 03:48:49;;;;;;;57.95;30.25;;;;;;;;;;4995578;28;20030;-63
2022/12/12 03:51:32;;;;;;;52.22;27.98;;;;;;;;;;4994250;28;20113;-63
2022/12/12 03:54:37;;;;;;;56.75;28.95;;;;;;;;;;4995336;28;20034;-64
2022/12/12 03:57:07;;;;;;;56.78;27.23;;;;;;;;;;4973293;28;20027;-64
2022/12/12 03:59:36;;;;;;;61.33;28.35;;;;;;;;;;4973411;28;20110;-62
2022/12/12 04:02:16;;;;;;;62.63;30.75;;;;;;;;;;4984924;28;20053;-64
2022/12/12 04:04:42;;;;;;;54.33;28.73;;;;;;;;;;4994406;28;20402;-65
2022/12/12 04:07:08;;;;;;;58.50;29.17;;;;;;;;;;4995105;28;20034;-63
2022/12/12 04:15:29;;;;;;;55.65;27.85;;;;;;;;;;4995479;28;20091;-63
2022/12/12 04:17:55;;;;;;;53.63;28.58;;;;;;;;;;5010132;28;20026;-64
2022/12/12 04:23:43;;;;;;;62.92;30.08;;;;;;;;;;5014801;28;20080;-63
2022/12/12 04:29:20;;;;;;;54.17;30.33;;;;;;;;;;5014053;28;20114;-64
2022/12/12 04:32:03;;;;;;;54.90;28.80;;;;;;;;;;5012187;28;20328;-64
2022/12/12 04:34:32;;;;;;;64.22;31.48;;;;;;;;;;5012467;28;20021;-61
2022/12/12 04:36:58;;;;;;;57.13;26.85;;;;;;;;;;5012675;28;20028;-65
2022/12/12 04:39:25;;;;;;;61.13;29.75;;;;;;;;;;5013008;28;20033;-64
2022/12/12 04:41:52;;;;;;;57.67;29.77;;;;;;;;;;5014194;28;20540;-60
2022/12/12 04:44:19;;;;;;;61.22;30.33;;;;;;;;;;5013921;28;20375;-63
2022/12/12 04:46:47;;;;;;;58.10;29.13;;;;;;;;;;5013663;28;20034;-64
2022/12/12 04:49:21;;;;;;;54.80;29.05;;;;;;;;;;5013674;28;20054;-63
2022/12/12 04:51:50;;;;;;;60.92;31.42;;;;;;;;;;5012458;28;20034;-64
2022/12/12 04:54:20;;;;;;;57.30;30.25;;;;;;;;;;4995337;28;20026;-63
2022/12/12 04:56:51;;;;;;;59.60;30.00;;;;;;;;;;4993992;28;20023;-62
2022/12/12 04:59:17;;;;;;;57.95;30.70;;;;;;;;;;4992900;28;20044;-64
2022/12/12 05:01:55;;;;;;;54.17;28.70;;;;;;;;;;4994210;28;20562;-64
2022/12/12 05:04:35;;;;;;;59.55;29.70;;;;;;;;;;4992462;28;20034;-65
2022/12/12 05:07:06;;;;;;;57.10;29.48;;;;;;;;;;4993145;28;20048;-64
2022/12/12 05:09:32;;;;;;;50.50;28.13;;;;;;;;;;4992720;28;20059;-65
2022/12/12 05:11:58;;;;;;;53.50;30.50;;;;;;;;;;4992539;28;20037;-63
2022/12/12 05:14:24;;;;;;;59.22;29.52;;;;;;;;;;4993748;28;20030;-63
2022/12/12 05:16:52;;;;;;;53.88;27.70;;;;;;;;;;4993625;28;20080;-63
2022/12/12 05:19:18;;;;;;;60.70;30.55;;;;;;;;;;4993559;28;20093;-63
2022/12/12 05:21:44;;;;;;;55.05;28.70;;;;;;;;;;4993746;28;20027;-64
2022/12/12 05:24:10;;;;;;;56.97;29.90;;;;;;;;;;4992198;28;20100;-63
2022/12/12 05:26:36;;;;;;;62.80;31.23;;;;;;;;;;4992430;28;20058;-64
2022/12/12 05:29:03;;;;;;;55.53;30.35;;;;;;;;;;4993985;28;20030;-63
2022/12/12 05:31:29;;;;;;;57.40;28.90;;;;;;;;;;4993635;28;20105;-64
2022/12/12 05:33:55;;;;;;;51.60;28.58;;;;;;;;;;4991964;28;20030;-62
2022/12/12 05:36:21;;;;;;;57.78;29.67;;;;;;;;;;4992123;28;20126;-64
2022/12/12 05:38:48;;;;;;;61.00;28.33;;;;;;;;;;4993421;28;20073;-63
2022/12/12 05:41:14;;;;;;;59.58;29.92;;;;;;;;;;5011429;28;20025;-63
2022/12/12 05:43:40;;;;;;;58.33;30.95;;;;;;;;;;5011135;28;20029;-63
2022/12/12 05:46:06;;;;;;;59.92;31.17;;;;;;;;;;5012668;28;20642;-63
2022/12/12 05:48:32;;;;;;;55.08;29.70;;;;;;;;;;5011182;28;20025;-63
2022/12/12 05:51:00;;;;;;;52.08;29.02;;;;;;;;;;5012221;28;20029;-62
2022/12/12 05:53:26;;;;;;;54.47;28.02;;;;;;;;;;5011150;28;20486;-63
2022/12/12 05:55:52;;;;;;;55.53;27.70;;;;;;;;;;5012436;28;20101;-63
2022/12/12 05:58:19;;;;;;;55.65;28.27;;;;;;;;;;5011241;28;20116;-64
2022/12/12 06:00:48;;;;;;;55.20;29.23;;;;;;;;;;5011442;28;20068;-58
2022/12/12 06:03:14;;;;;;;54.00;29.65;;;;;;;;;;5010968;28;20018;-63
2022/12/12 06:05:41;;;;;;;57.88;29.98;;;;;;;;;;5012266;28;20049;-62
2022/12/12 06:08:07;;;;;;;50.60;26.00;;;;;;;;;;5023457;23;20045;-57
2022/12/12 06:10:33;;;;;;;60.53;30.52;;;;;;;;;;4991243;28;20121;-66
2022/12/12 06:12:59;;;;;;;57.92;28.25;;;;;;;;;;4991381;28;20049;-61
2022/12/12 06:15:25;;;;;;;56.15;29.70;;;;;;;;;;4991304;28;20088;-61
2022/12/12 06:17:51;;;;;;;54.70;28.90;;;;;;;;;;4990927;28;20471;-62
2022/12/12 06:20:17;;;;;;;62.28;31.77;;;;;;;;;;4990966;28;20034;-61
2022/12/12 06:22:43;;;;;;;56.00;31.00;;;;;;;;;;4990541;28;20210;-63
2022/12/12 06:25:10;;;;;;;53.72;29.10;;;;;;;;;;4989721;28;20027;-61
2022/12/12 06:27:36;;;;;;;60.42;29.45;;;;;;;;;;4990886;28;20022;-64
2022/12/12 06:30:03;;;;;;;55.17;28.80;;;;;;;;;;4993116;28;20034;-62
2022/12/12 06:32:29;;;;;;;58.20;29.42;;;;;;;;;;4994575;28;20041;-62
2022/12/12 06:34:55;;;;;;;57.78;30.10;;;;;;;;;;4994724;28;20019;-55
2022/12/12 06:37:21;;;;;;;55.63;30.15;;;;;;;;;;4994889;28;20022;-59
2022/12/12 06:39:47;;;;;;;54.85;29.48;;;;;;;;;;4993323;28;20025;-58
2022/12/12 06:42:13;;;;;;;46.75;28.65;;;;;;;;;;4995035;28;20483;-59
2022/12/12 06:44:39;;;;;;;55.47;30.17;;;;;;;;;;4994507;28;20120;-58
2022/12/12 06:47:05;;;;;;;60.75;30.55;;;;;;;;;;4993543;28;20099;-63
2022/12/12 06:49:31;;;;;;;54.55;29.48;;;;;;;;;;4993675;28;20121;-62
2022/12/12 06:51:57;;;;;;;54.38;30.70;;;;;;;;;;4994162;28;20117;-62
2022/12/12 06:54:25;;;;;;;56.58;29.77;;;;;;;;;;4995765;28;20066;-64
2022/12/12 06:56:51;;;;;;;52.55;27.55;;;;;;;;;;5014193;28;20026;-60
2022/12/12 06:59:17;;;;;;;54.92;27.27;;;;;;;;;;5014375;28;20033;-60
2022/12/12 07:01:43;;;;;;;48.45;26.10;;;;;;;;;;5014250;28;20056;-61
2022/12/12 07:04:09;;;;;;;57.60;29.58;;;;;;;;;;5005931;28;20410;-60
2022/12/12 07:06:35;;;;;;;58.75;29.20;;;;;;;;;;4992202;28;20149;-60
2022/12/12 07:09:02;;;;;;;56.70;28.25;;;;;;;;;;4994656;28;20042;-61
2022/12/12 07:11:28;;;;;;;53.42;27.83;;;;;;;;;;4994947;28;20026;-60
2022/12/12 07:13:55;;;;;;;59.35;29.25;;;;;;;;;;4994287;28;20023;-60
2022/12/12 07:16:21;;;;;;;53.42;27.27;;;;;;;;;;4994617;28;20026;-57
2022/12/12 07:18:47;;;;;;;54.72;29.63;;;;;;;;;;4994847;28;20102;-59
2022/12/12 07:21:15;;;;;;;57.45;27.45;;;;;;;;;;4994904;28;20026;-59
2022/12/12 07:23:41;;;;;;;52.70;27.88;;;;;;;;;;4994871;28;20418;-61
2022/12/12 07:26:08;;;;;;;51.05;26.35;;;;;;;;;;4994785;28;20037;-59
2022/12/12 07:28:36;;;;;;;53.80;28.83;;;;;;;;;;4994429;28;20717;-55
2022/12/12 07:31:05;;;;;;;52.25;28.38;;;;;;;;;;4994678;28;20538;-60
2022/12/12 07:33:31;;;;;;;58.28;29.70;;;;;;;;;;4993708;28;20030;-62
2022/12/12 07:36:00;;;;;;;50.22;27.73;;;;;;;;;;4994437;28;20113;-60
2022/12/12 07:38:26;;;;;;;54.53;27.80;;;;;;;;;;4994949;28;20105;-62
2022/12/12 07:40:52;;;;;;;59.50;28.52;;;;;;;;;;4992952;28;20019;-56
2022/12/12 07:43:18;;;;;;;51.20;28.83;;;;;;;;;;5011171;28;20075;-60
2022/12/12 07:45:45;;;;;;;49.55;27.55;;;;;;;;;;5014454;28;20021;-61
2022/12/12 07:48:11;;;;;;;57.22;30.10;;;;;;;;;;5014248;28;20105;-60
2022/12/12 07:50:37;;;;;;;49.85;25.63;;;;;;;;;;5011491;28;20040;-59
2022/12/12 07:53:04;;;;;;;55.17;28.05;;;;;;;;;;5012909;28;20119;-62
2022/12/12 07:55:30;;;;;;;54.10;29.70;;;;;;;;;;5013643;28;20036;-60
2022/12/12 07:57:56;;;;;;;56.53;29.85;;;;;;;;;;5013648;28;20022;-61
2022/12/12 08:00:22;;;;;;;52.00;27.83;;;;;;;;;;5013367;28;20010;-61
2022/12/12 08:02:48;;;;;;;50.40;28.90;;;;;;;;;;5013578;28;20026;-55
2022/12/12 08:05:15;;;;;;;53.58;26.13;;;;;;;;;;5011781;28;20467;-62
2022/12/12 08:07:41;;;;;;;56.90;28.98;;;;;;;;;;4974608;28;20417;-61
2022/12/12 08:10:08;;;;;;;51.72;28.30;;;;;;;;;;4991531;28;20045;-64
2022/12/12 08:12:34;;;;;;;53.70;28.17;;;;;;;;;;5013342;28;20033;-64
2022/12/12 08:15:00;;;;;;;52.72;28.50;;;;;;;;;;5011860;28;20394;-66
2022/12/12 08:17:26;;;;;;;55.13;29.50;;;;;;;;;;5014073;28;20026;-66
2022/12/12 08:19:52;;;;;;;53.58;27.95;;;;;;;;;;4994098;28;20050;-66
2022/12/12 08:22:18;;;;;;;48.22;28.48;;;;;;;;;;4993283;28;20026;-67
2022/12/12 08:24:44;;;;;;;53.28;26.80;;;;;;;;;;4993549;28;20022;-65
2022/12/12 08:27:10;;;;;;;58.17;27.67;;;;;;;;;;4993496;28;20034;-66
2022/12/12 08:29:37;;;;;;;55.10;30.58;;;;;;;;;;4992038;28;20037;-66
2022/12/12 08:32:03;;;;;;;52.85;28.02;;;;;;;;;;4992902;28;20038;-65
2022/12/12 08:34:29;;;;;;;56.20;29.40;;;;;;;;;;4992910;28;20442;-66
2022/12/12 08:36:55;;;;;;;54.85;27.85;;;;;;;;;;4993314;28;20106;-66
2022/12/12 08:39:21;;;;;;;52.13;28.02;;;;;;;;;;4993159;28;20030;-66
2022/12/12 08:41:48;;;;;;;56.85;29.77;;;;;;;;;;4993292;28;20026;-66
2022/12/12 08:44:16;;;;;;;51.78;28.05;;;;;;;;;;4993295;28;20033;-66
2022/12/12 08:46:42;;;;;;;54.00;29.97;;;;;;;;;;4993626;28;20030;-67
2022/12/12 08:49:08;;;;;;;50.20;27.60;;;;;;;;;;4993304;28;20096;-66
2022/12/12 08:51:36;;;;;;;53.78;28.45;;;;;;;;;;4992372;28;20053;-65
2022/12/12 08:54:03;;;;;;;47.28;27.73;;;;;;;;;;4992824;28;20026;-67
2022/12/12 08:56:29;;;;;;;54.80;28.58;;;;;;;;;;4992101;28;20084;-66
2022/12/12 08:58:55;;;;;;;51.00;27.95;;;;;;;;;;4993267;28;20023;-67
2022/12/12 09:01:22;;;;;;;55.03;29.67;;;;;;;;;;4991594;28;20038;-64
2022/12/12 09:03:49;;;;;;;49.80;27.83;;;;;;;;;;4993649;28;20495;-64
2022/12/12 09:06:15;;;;;;;47.42;26.65;;;;;;;;;;4993065;28;20434;-65
2022/12/12 09:08:42;;;;;;;48.78;28.88;;;;;;;;;;4992819;28;20121;-67
2022/12/12 09:11:08;;;;;;;51.13;26.42;;;;;;;;;;4993053;28;20040;-65
2022/12/12 09:13:35;;;;;;;48.75;26.90;;;;;;;;;;4992297;28;20038;-65
2022/12/12 09:16:01;;;;;;;51.63;27.02;;;;;;;;;;4992561;28;20026;-65
2022/12/12 09:18:27;;;;;;;53.70;26.80;;;;;;;;;;4992637;28;20022;-63
2022/12/12 09:20:55;;;;;;;52.25;28.60;;;;;;;;;;4992708;28;20426;-67
2022/12/12 09:23:21;;;;;;;47.88;26.90;;;;;;;;;;4990992;28;20248;-63
2022/12/12 09:25:47;;;;;;;48.25;25.90;;;;;;;;;;4992765;28;20553;-65
2022/12/12 09:28:15;;;;;;;52.70;29.67;;;;;;;;;;4993349;28;20391;-67
2022/12/12 09:30:41;;;;;;;50.03;26.42;;;;;;;;;;4991215;28;20493;-66
2022/12/12 09:33:07;;;;;;;46.05;27.10;;;;;;;;;;4992163;28;20034;-66
2022/12/12 09:35:33;;;;;;;48.75;28.42;;;;;;;;;;4992566;28;20022;-65
2022/12/12 09:37:59;;;;;;;48.40;25.88;;;;;;;;;;4992203;28;20097;-66
2022/12/12 09:40:35;;;;;;;48.22;25.67;;;;;;;;;;4991119;28;20470;-66
2022/12/12 09:43:01;;;;;;;48.15;27.42;;;;;;;;;;4992030;28;20050;-70
2022/12/12 09:45:28;;;;;;;45.30;26.90;;;;;;;;;;4991320;28;20113;-66
2022/12/12 09:47:56;;;;;;;49.28;27.42;;;;;;;;;;4990705;28;20027;-68
2022/12/12 09:50:31;;;;;;;55.65;29.42;;;;;;;;;;4992014;28;20023;-66
2022/12/12 09:53:10;;;;;;;49.83;27.23;;;;;;;;;;4990719;28;20044;-66
2022/12/12 09:55:55;;;;;;;51.65;26.17;;;;;;;;;;4992457;28;20032;-68
2022/12/12 09:58:44;;;;;;;54.15;27.58;;;;;;;;;;4997113;28;20033;-65
2022/12/12 10:01:17;;;;;;;44.72;25.08;;;;;;;;;;5003737;28;20044;-65
2022/12/12 10:03:55;;;;;;;49.55;27.98;;;;;;;;;;5010776;28;20030;-66
2022/12/12 10:06:22;;;;;;;52.53;28.48;;;;;;;;;;5004056;28;20105;-66
2022/12/12 10:09:08;;;;;;;58.55;28.83;;;;;;;;;;4992103;28;20486;-65
2022/12/12 10:11:49;;;;;;;49.53;27.52;;;;;;;;;;4991968;28;20023;-65
2022/12/12 10:14:17;;;;;;;47.70;26.27;;;;;;;;;;4990044;28;20044;-64
2022/12/12 10:16:43;;;;;;;53.78;28.42;;;;;;;;;;4991643;28;20022;-64
2022/12/12 10:19:13;;;;;;;54.08;29.58;;;;;;;;;;4992053;28;20027;-66
2022/12/12 10:21:40;;;;;;;43.17;24.83;;;;;;;;;;4991759;28;20455;-66
2022/12/12 10:24:06;;;;;;;52.88;26.85;;;;;;;;;;4991287;28;20106;-66
2022/12/12 10:26:32;;;;;;;49.28;27.65;;;;;;;;;;4991673;28;20037;-65
2022/12/12 10:29:17;;;;;;;48.38;27.25;;;;;;;;;;4998350;28;20018;-65
2022/12/12 10:31:48;;;;;;;45.53;24.95;;;;;;;;;;5011212;28;20390;-66
2022/12/12 10:34:26;;;;;;;48.78;27.20;;;;;;;;;;5011163;28;20034;-65
2022/12/12 10:37:08;;;;;;;52.08;27.95;;;;;;;;;;5011054;28;20045;-67
2022/12/12 10:39:53;;;;;;;45.97;26.02;;;;;;;;;;5011022;28;20051;-67
2022/12/12 10:42:27;;;;;;;44.67;25.85;;;;;;;;;;5011116;28;20113;-66
2022/12/12 10:45:06;;;;;;;49.03;27.85;;;;;;;;;;5011055;28;20054;-65
2022/12/12 10:47:33;;;;;;;47.67;26.17;;;;;;;;;;5010874;28;20033;-65
2022/12/12 10:50:16;;;;;;;49.92;29.42;;;;;;;;;;5011161;28;20052;-65
2022/12/12 10:52:42;;;;;;;49.70;28.95;;;;;;;;;;5009674;28;20034;-65
2022/12/12 10:55:16;;;;;;;45.22;24.20;;;;;;;;;;5010737;28;20080;-66
2022/12/12 10:57:42;;;;;;;47.35;26.02;;;;;;;;;;5010772;28;20033;-66
2022/12/12 11:00:25;;;;;;;46.80;27.45;;;;;;;;;;5009698;28;20113;-66
2022/12/12 11:02:51;;;;;;;42.72;26.15;;;;;;;;;;5011481;28;20504;-67
2022/12/12 11:05:24;;;;;;;46.70;26.27;;;;;;;;;;5009946;28;20474;-65
2022/12/12 11:08:04;;;;;;;48.38;25.70;;;;;;;;;;4992078;28;20081;-65
2022/12/12 11:10:30;;;;;;;48.67;26.27;;;;;;;;;;4991368;28;20089;-64
2022/12/12 11:12:58;;;;;;;51.65;25.80;;;;;;;;;;4991105;28;20026;-66
2022/12/12 11:15:50;;;;;;;43.83;25.15;;;;;;;;;;4993092;28;20019;-67
2022/12/12 11:18:20;;;;;;;49.53;27.73;;;;;;;;;;4992130;28;20039;-68
2022/12/12 11:20:49;;;;;;;49.35;27.20;;;;;;;;;;4995133;28;20106;-66
2022/12/12 11:23:19;;;;;;;46.10;26.05;;;;;;;;;;4995393;28;20029;-64
2022/12/12 11:25:45;;;;;;;49.25;27.45;;;;;;;;;;4995231;28;20475;-66
2022/12/12 11:28:16;;;;;;;49.25;28.13;;;;;;;;;;4994751;28;20039;-66
2022/12/12 11:30:43;;;;;;;54.85;30.73;;;;;;;;;;5007160;28;20525;-66
2022/12/12 11:33:15;;;;;;;47.00;28.27;;;;;;;;;;5013684;28;20030;-66
2022/12/12 11:35:42;;;;;;;50.65;27.27;;;;;;;;;;5014206;28;20046;-66
2022/12/12 11:38:19;;;;;;;54.80;27.52;;;;;;;;;;5013840;28;20121;-66
2022/12/12 11:40:55;;;;;;;49.25;28.20;;;;;;;;;;5014181;28;20026;-66
2022/12/12 11:43:25;;;;;;;50.10;26.08;;;;;;;;;;5012323;28;20105;-70
2022/12/12 11:46:17;;;;;;;49.80;27.42;;;;;;;;;;5010451;28;20041;-66
2022/12/12 11:48:46;;;;;;;47.05;27.80;;;;;;;;;;4992155;28;20511;-66
2022/12/12 11:51:13;;;;;;;48.65;26.17;;;;;;;;;;4994734;28;20046;-66
2022/12/12 11:53:41;;;;;;;49.63;27.90;;;;;;;;;;4995633;28;20030;-67
2022/12/12 11:56:07;;;;;;;45.70;27.57;;;;;;;;;;4994508;28;20026;-64
2022/12/12 11:58:43;;;;;;;54.53;30.70;;;;;;;;;;4996901;28;20026;-65
2022/12/12 12:01:18;;;;;;;49.92;28.40;;;;;;;;;;5014506;28;20057;-66
2022/12/12 12:03:44;;;;;;;49.97;28.02;;;;;;;;;;5013551;28;20038;-66
2022/12/12 12:06:33;;;;;;;50.53;28.48;;;;;;;;;;5009102;28;20335;-65
2022/12/12 12:09:00;;;;;;;51.97;28.85;;;;;;;;;;4994248;28;20034;-65
2022/12/12 12:11:26;;;;;;;49.35;27.40;;;;;;;;;;5012246;28;20079;-65
2022/12/12 12:13:52;;;;;;;54.17;29.80;;;;;;;;;;5014746;28;20057;-64
2022/12/12 12:16:37;;;;;;;49.53;28.42;;;;;;;;;;5013481;28;20029;-68
2022/12/12 12:19:18;;;;;;;53.25;28.60;;;;;;;;;;5013546;28;20036;-66
2022/12/12 12:21:55;;;;;;;46.53;28.27;;;;;;;;;;5012099;28;20030;-66
2022/12/12 12:24:32;;;;;;;49.70;30.50;;;;;;;;;;5013143;28;20394;-66
2022/12/12 12:27:17;;;;;;;56.45;31.52;;;;;;;;;;5011351;28;20052;-67
2022/12/12 12:29:43;;;;;;;53.13;29.23;;;;;;;;;;5013244;28;20064;-67
2022/12/12 12:32:12;;;;;;;50.63;27.98;;;;;;;;;;5012822;28;20450;-70
2022/12/12 12:34:41;;;;;;;55.20;29.48;;;;;;;;;;5013152;28;20093;-66
2022/12/12 12:37:13;;;;;;;48.47;28.23;;;;;;;;;;5013511;28;20422;-67
2022/12/12 12:40:02;;;;;;;54.30;28.27;;;;;;;;;;5013261;28;20097;-66
2022/12/12 12:42:27;;;;;;;49.78;29.20;;;;;;;;;;5013717;28;20064;-66
2022/12/12 12:45:01;;;;;;;49.65;26.58;;;;;;;;;;5013233;28;20025;-66
2022/12/12 12:47:33;;;;;;;48.90;28.15;;;;;;;;;;5013015;28;20026;-64
2022/12/12 12:50:04;;;;;;;45.08;26.10;;;;;;;;;;5012483;28;20086;-64
2022/12/12 12:52:30;;;;;;;46.70;28.60;;;;;;;;;;5010284;28;20497;-67
2022/12/12 12:54:57;;;;;;;49.08;29.35;;;;;;;;;;4992573;28;20117;-66
2022/12/12 12:57:32;;;;;;;48.63;28.23;;;;;;;;;;4993004;28;20030;-65
2022/12/12 13:00:02;;;;;;;52.10;26.33;;;;;;;;;;4991679;28;20029;-64
2022/12/12 13:02:45;;;;;;;51.42;28.58;;;;;;;;;;4993242;28;20041;-64
2022/12/12 13:05:25;;;;;;;49.88;27.08;;;;;;;;;;4992740;28;20073;-66
2022/12/12 13:07:54;;;;;;;47.70;27.70;;;;;;;;;;4992408;28;20038;-65
2022/12/12 13:10:22;;;;;;;43.63;25.90;;;;;;;;;;4992724;28;20113;-66
2022/12/12 13:13:08;;;;;;;47.73;28.87;;;;;;;;;;4992595;28;20030;-63
2022/12/12 13:15:36;;;;;;;44.88;25.42;;;;;;;;;;4981951;28;20407;-64
2022/12/12 13:18:04;;;;;;;47.22;25.95;;;;;;;;;;4992755;28;20504;-66
2022/12/12 13:20:34;;;;;;;45.83;26.42;;;;;;;;;;4992642;28;20548;-66
2022/12/12 13:23:03;;;;;;;48.33;29.45;;;;;;;;;;4992107;28;20029;-61
2022/12/12 13:25:29;;;;;;;45.42;28.45;;;;;;;;;;4992419;28;20120;-65
2022/12/12 13:27:58;;;;;;;48.97;26.70;;;;;;;;;;4992315;28;20105;-63
2022/12/12 13:30:24;;;;;;;;;;;;;;;;;;4992421;28;20395;-63
2022/12/12 13:32:50;;;;;;;46.42;25.98;;;;;;;;;;4992606;28;19909;-66
2022/12/12 13:35:22;;;;;;;47.13;25.70;;;;;;;;;;4992249;28;20007;-64
2022/12/12 13:37:50;;;;;;;45.05;24.70;;;;;;;;;;4991353;28;20018;-68
2022/12/12 13:40:33;;;;;;;44.53;24.80;;;;;;;;;;4992136;28;20069;-66
2022/12/12 13:43:03;;;;;;;44.63;25.15;;;;;;;;;;4992289;28;20464;-65
2022/12/12 13:45:38;;;;;;;38.97;25.02;;;;;;;;;;4992066;28;20035;-67
2022/12/12 13:48:05;;;;;;;39.50;22.92;;;;;;;;;;4993134;28;20050;-66
2022/12/12 13:50:31;;;;;;;37.80;23.30;;;;;;;;;;4992011;28;20034;-65
2022/12/12 13:53:07;;;;;;;39.88;22.23;;;;;;;;;;4990080;28;20037;-66
2022/12/12 13:55:34;;;;;;;38.53;23.13;;;;;;;;;;4991615;28;20026;-67
2022/12/12 13:58:01;;;;;;;32.95;19.58;;;;;;;;;;4992477;28;20030;-66
2022/12/12 14:00:30;;;;;;;39.15;23.17;;;;;;;;;;4992637;28;20098;-67
2022/12/12 14:02:58;;;;;;;39.38;23.73;;;;;;;;;;4992176;28;20026;-70
2022/12/12 14:05:28;;;;;;;39.88;22.50;;;;;;;;;;4993428;28;20022;-67
2022/12/12 14:08:02;;;;;;;40.30;23.27;;;;;;;;;;4991783;28;20038;-68
2022/12/12 14:10:32;;;;;;;38.20;21.73;;;;;;;;;;4992297;28;20026;-65
2022/12/12 14:13:14;;;;;;;40.58;22.48;;;;;;;;;;4991870;28;20049;-63
2022/12/12 14:15:41;;;;;;;39.05;22.95;;;;;;;;;;4992271;28;20169;-67
2022/12/12 14:18:16;;;;;;;39.80;23.92;;;;;;;;;;4992032;28;20082;-67
2022/12/12 14:20:43;;;;;;;40.38;23.30;;;;;;;;;;4992177;28;20072;-66
2022/12/12 14:23:12;;;;;;;39.40;23.27;;;;;;;;;;4991955;28;20026;-66
2022/12/12 14:25:39;;;;;;;45.30;25.08;;;;;;;;;;4992171;28;20042;-66
2022/12/12 14:28:22;;;;;;;47.08;23.52;;;;;;;;;;4984107;28;20031;-65
2022/12/12 14:30:51;;;;;;;44.63;23.65;;;;;;;;;;4972797;28;20019;-67
2022/12/12 14:33:17;;;;;;;41.45;24.42;;;;;;;;;;4972819;28;20034;-66
2022/12/12 14:35:50;;;;;;;42.35;23.27;;;;;;;;;;4973023;28;20456;-67
2022/12/12 14:38:19;;;;;;;44.08;23.73;;;;;;;;;;4971543;28;20034;-66
2022/12/12 14:40:47;;;;;;;42.70;23.38;;;;;;;;;;4972358;28;20122;-66
2022/12/12 14:43:19;;;;;;;47.90;26.65;;;;;;;;;;4971935;28;20038;-66
2022/12/12 14:45:53;;;;;;;52.40;27.10;;;;;;;;;;4971853;28;20050;-65
2022/12/12 14:48:32;;;;;;;40.35;22.65;;;;;;;;;;4971995;28;20082;-67
2022/12/12 14:51:04;;;;;;;46.22;26.15;;;;;;;;;;4975247;28;20031;-64